sensor_id;sensor_type;location;lat;lon;timestamp;temperature;humidity
37410;DHT22;23275;48.914;12.566;2023-04-24T00:01:39;10.80;99.90
37410;DHT22;23275;48.914;12.566;2023-04-24T00:04:05;10.80;99.90
37410;DHT22;23275;48.914;12.566;2023-04-24T00:06:33;10.80;99.90
37410;DHT22;23275;48.914;12.566;2023-04-24T00:09:00;10.80;99.90
37410;DHT22;23275;48.914;12.566;2023-04-24T00:11:26;10.80;99.90
37410;DHT22;23275;48.914;12.566;2023-04-24T00:13:52;10.80;99.90
37410;DHT22;23275;48.914;12.566;2023-04-24T00:16:17;10.70;99.90
37410;DHT22;23275;48.914;12.566;2023-04-24T00:18:43;10.70;99.90
37410;DHT22;23275;48.914;12.566;2023-04-24T00:21:10;10.80;99.90
37410;DHT22;23275;48.914;12.566;2023-04-24T00:23:36;10.70;99.90
37410;DHT22;23275;48.914;12.566;2023-04-24T00:26:01;10.70;99.90
37410;DHT22;23275;48.914;12.566;2023-04-24T00:28:27;10.70;99.90
37410;DHT22;23275;48.914;12.566;2023-04-24T00:30:53;10.70;99.90
37410;DHT22;23275;48.914;12.566;2023-04-24T00:33:19;10.70;99.90
37410;DHT22;23275;48.914;12.566;2023-04-24T00:35:44;10.70;99.90
37410;DHT22;23275;48.914;12.566;2023-04-24T00:38:10;10.70;99.90
37410;DHT22;23275;48.914;12.566;2023-04-24T00:40:36;10.70;99.90
37410;DHT22;23275;48.914;12.566;2023-04-24T00:43:01;10.80;99.90
37410;DHT22;23275;48.914;12.566;2023-04-24T00:45:27;10.80;99.90
37410;DHT22;23275;48.914;12.566;2023-04-24T00:47:53;10.80;99.90
37410;DHT22;23275;48.914;12.566;2023-04-24T00:50:18;10.80;99.90
37410;DHT22;23275;48.914;12.566;2023-04-24T00:52:46;10.80;99.90
37410;DHT22;23275;48.914;12.566;2023-04-24T00:55:12;10.80;99.90
37410;DHT22;23275;48.914;12.566;2023-04-24T00:57:38;10.80;99.90
37410;DHT22;23275;48.914;12.566;2023-04-24T01:00:05;10.80;99.90
37410;DHT22;23275;48.914;12.566;2023-04-24T01:02:31;10.80;99.90
37410;DHT22;23275;48.914;12.566;2023-04-24T01:05:00;10.90;99.90
37410;DHT22;23275;48.914;12.566;2023-04-24T01:07:26;10.90;99.90
37410;DHT22;23275;48.914;12.566;2023-04-24T01:09:52;10.90;99.90
37410;DHT22;23275;48.914;12.566;2023-04-24T01:12:19;10.90;99.90
37410;DHT22;23275;48.914;12.566;2023-04-24T01:14:44;10.90;99.90
37410;DHT22;23275;48.914;12.566;2023-04-24T01:17:10;10.90;99.90
37410;DHT22;23275;48.914;12.566;2023-04-24T01:19:36;11.00;99.90
37410;DHT22;23275;48.914;12.566;2023-04-24T01:22:08;11.00;99.90
37410;DHT22;23275;48.914;12.566;2023-04-24T01:24:33;10.90;99.90
37410;DHT22;23275;48.914;12.566;2023-04-24T01:26:59;10.90;99.90
37410;DHT22;23275;48.914;12.566;2023-04-24T01:29:26;11.00;99.90
37410;DHT22;23275;48.914;12.566;2023-04-24T01:31:52;11.00;99.90
37410;DHT22;23275;48.914;12.566;2023-04-24T01:34:18;11.00;99.90
37410;DHT22;23275;48.914;12.566;2023-04-24T01:36:45;11.00;99.90
37410;DHT22;23275;48.914;12.566;2023-04-24T01:39:11;11.00;99.90
37410;DHT22;23275;48.914;12.566;2023-04-24T01:41:37;11.00;99.90
37410;DHT22;23275;48.914;12.566;2023-04-24T01:44:02;11.10;99.90
37410;DHT22;23275;48.914;12.566;2023-04-24T01:46:29;11.10;99.90
37410;DHT22;23275;48.914;12.566;2023-04-24T01:48:55;11.10;99.90
37410;DHT22;23275;48.914;12.566;2023-04-24T01:51:21;11.10;99.90
37410;DHT22;23275;48.914;12.566;2023-04-24T01:53:47;11.10;99.90
37410;DHT22;23275;48.914;12.566;2023-04-24T01:56:14;11.10;99.90
37410;DHT22;23275;48.914;12.566;2023-04-24T01:58:39;11.00;99.90
37410;DHT22;23275;48.914;12.566;2023-04-24T02:01:06;11.10;99.90
37410;DHT22;23275;48.914;12.566;2023-04-24T02:03:32;11.10;99.90
37410;DHT22;23275;48.914;12.566;2023-04-24T02:05:57;11.00;99.90
37410;DHT22;23275;48.914;12.566;2023-04-24T02:08:23;11.00;99.90
37410;DHT22;23275;48.914;12.566;2023-04-24T02:10:49;11.00;99.90
37410;DHT22;23275;48.914;12.566;2023-04-24T02:13:14;11.00;99.90
37410;DHT22;23275;48.914;12.566;2023-04-24T02:15:40;11.00;99.90
37410;DHT22;23275;48.914;12.566;2023-04-24T02:18:05;11.00;99.90
37410;DHT22;23275;48.914;12.566;2023-04-24T02:20:32;11.00;99.90
37410;DHT22;23275;48.914;12.566;2023-04-24T02:22:59;10.90;99.90
37410;DHT22;23275;48.914;12.566;2023-04-24T02:25:25;10.90;99.90
37410;DHT22;23275;48.914;12.566;2023-04-24T02:27:50;10.90;99.90
37410;DHT22;23275;48.914;12.566;2023-04-24T02:30:16;10.90;99.90
37410;DHT22;23275;48.914;12.566;2023-04-24T02:32:41;10.90;99.90
37410;DHT22;23275;48.914;12.566;2023-04-24T02:35:07;10.90;99.90
37410;DHT22;23275;48.914;12.566;2023-04-24T02:37:33;10.90;99.90
37410;DHT22;23275;48.914;12.566;2023-04-24T02:39:59;10.90;99.90
37410;DHT22;23275;48.914;12.566;2023-04-24T02:42:24;10.90;99.90
37410;DHT22;23275;48.914;12.566;2023-04-24T02:44:50;10.90;99.90
37410;DHT22;23275;48.914;12.566;2023-04-24T02:47:16;10.90;99.90
37410;DHT22;23275;48.914;12.566;2023-04-24T02:49:42;10.90;99.90
37410;DHT22;23275;48.914;12.566;2023-04-24T02:52:07;10.90;99.90
37410;DHT22;23275;48.914;12.566;2023-04-24T02:54:33;10.90;99.90
37410;DHT22;23275;48.914;12.566;2023-04-24T02:56:58;10.90;99.90
37410;DHT22;23275;48.914;12.566;2023-04-24T02:59:24;10.80;99.90
37410;DHT22;23275;48.914;12.566;2023-04-24T03:01:50;10.80;99.90
37410;DHT22;23275;48.914;12.566;2023-04-24T03:04:15;10.80;99.90
37410;DHT22;23275;48.914;12.566;2023-04-24T03:06:41;10.80;99.90
37410;DHT22;23275;48.914;12.566;2023-04-24T03:09:07;10.80;99.90
37410;DHT22;23275;48.914;12.566;2023-04-24T03:11:32;10.80;99.90
37410;DHT22;23275;48.914;12.566;2023-04-24T03:13:58;10.80;99.90
37410;DHT22;23275;48.914;12.566;2023-04-24T03:16:24;10.80;99.90
37410;DHT22;23275;48.914;12.566;2023-04-24T03:18:49;10.80;99.90
37410;DHT22;23275;48.914;12.566;2023-04-24T03:21:16;10.80;99.90
37410;DHT22;23275;48.914;12.566;2023-04-24T03:23:41;10.80;99.90
37410;DHT22;23275;48.914;12.566;2023-04-24T03:26:07;10.70;99.90
37410;DHT22;23275;48.914;12.566;2023-04-24T03:28:32;10.70;99.90
37410;DHT22;23275;48.914;12.566;2023-04-24T03:30:58;10.70;99.90
37410;DHT22;23275;48.914;12.566;2023-04-24T03:33:23;10.70;99.90
37410;DHT22;23275;48.914;12.566;2023-04-24T03:35:49;10.70;99.90
37410;DHT22;23275;48.914;12.566;2023-04-24T03:38:14;10.70;99.90
37410;DHT22;23275;48.914;12.566;2023-04-24T03:40:40;10.70;99.90
37410;DHT22;23275;48.914;12.566;2023-04-24T03:43:06;10.70;99.90
37410;DHT22;23275;48.914;12.566;2023-04-24T03:45:31;10.70;99.90
37410;DHT22;23275;48.914;12.566;2023-04-24T03:47:57;10.70;99.90
37410;DHT22;23275;48.914;12.566;2023-04-24T03:50:22;10.70;99.90
37410;DHT22;23275;48.914;12.566;2023-04-24T03:52:48;10.70;99.90
37410;DHT22;23275;48.914;12.566;2023-04-24T03:55:13;10.80;99.90
37410;DHT22;23275;48.914;12.566;2023-04-24T03:57:42;10.70;99.90
37410;DHT22;23275;48.914;12.566;2023-04-24T04:00:08;10.70;99.90
37410;DHT22;23275;48.914;12.566;2023-04-24T04:02:34;10.70;99.90
37410;DHT22;23275;48.914;12.566;2023-04-24T04:05:00;10.70;99.90
37410;DHT22;23275;48.914;12.566;2023-04-24T04:07:26;10.70;99.90
37410;DHT22;23275;48.914;12.566;2023-04-24T04:09:51;10.70;99.90
37410;DHT22;23275;48.914;12.566;2023-04-24T04:12:17;10.80;99.90
37410;DHT22;23275;48.914;12.566;2023-04-24T04:14:42;10.70;99.90
37410;DHT22;23275;48.914;12.566;2023-04-24T04:17:08;10.80;99.90
37410;DHT22;23275;48.914;12.566;2023-04-24T04:19:33;10.80;99.90
37410;DHT22;23275;48.914;12.566;2023-04-24T04:21:59;10.70;99.90
37410;DHT22;23275;48.914;12.566;2023-04-24T04:24:24;10.80;99.90
37410;DHT22;23275;48.914;12.566;2023-04-24T04:26:52;10.70;99.90
37410;DHT22;23275;48.914;12.566;2023-04-24T04:29:22;10.70;99.90
37410;DHT22;23275;48.914;12.566;2023-04-24T04:31:48;10.70;99.90
37410;DHT22;23275;48.914;12.566;2023-04-24T04:34:13;10.70;99.90
37410;DHT22;23275;48.914;12.566;2023-04-24T04:36:40;10.70;99.90
37410;DHT22;23275;48.914;12.566;2023-04-24T04:39:06;10.70;99.90
37410;DHT22;23275;48.914;12.566;2023-04-24T04:41:32;10.70;99.90
37410;DHT22;23275;48.914;12.566;2023-04-24T04:44:00;10.70;99.90
37410;DHT22;23275;48.914;12.566;2023-04-24T04:46:26;10.70;99.90
37410;DHT22;23275;48.914;12.566;2023-04-24T04:48:53;10.70;99.90
37410;DHT22;23275;48.914;12.566;2023-04-24T04:51:18;10.70;99.90
37410;DHT22;23275;48.914;12.566;2023-04-24T04:53:44;10.80;99.90
37410;DHT22;23275;48.914;12.566;2023-04-24T04:56:10;10.80;99.90
37410;DHT22;23275;48.914;12.566;2023-04-24T04:58:35;10.70;99.90
37410;DHT22;23275;48.914;12.566;2023-04-24T05:01:01;10.80;99.90
37410;DHT22;23275;48.914;12.566;2023-04-24T05:03:27;10.70;99.90
37410;DHT22;23275;48.914;12.566;2023-04-24T05:05:53;10.70;99.90
37410;DHT22;23275;48.914;12.566;2023-04-24T05:08:18;10.70;99.90
37410;DHT22;23275;48.914;12.566;2023-04-24T05:10:44;10.70;99.90
37410;DHT22;23275;48.914;12.566;2023-04-24T05:13:09;10.70;99.90
37410;DHT22;23275;48.914;12.566;2023-04-24T05:15:35;10.80;99.90
37410;DHT22;23275;48.914;12.566;2023-04-24T05:18:00;10.80;99.90
37410;DHT22;23275;48.914;12.566;2023-04-24T05:20:26;10.80;99.90
37410;DHT22;23275;48.914;12.566;2023-04-24T05:22:52;10.80;99.90
37410;DHT22;23275;48.914;12.566;2023-04-24T05:25:17;10.80;99.90
37410;DHT22;23275;48.914;12.566;2023-04-24T05:27:43;10.90;99.90
37410;DHT22;23275;48.914;12.566;2023-04-24T05:30:09;10.90;99.90
37410;DHT22;23275;48.914;12.566;2023-04-24T05:32:35;10.90;99.90
37410;DHT22;23275;48.914;12.566;2023-04-24T05:35:01;10.90;99.90
37410;DHT22;23275;48.914;12.566;2023-04-24T05:37:26;10.90;99.90
37410;DHT22;23275;48.914;12.566;2023-04-24T05:39:52;10.90;99.90
37410;DHT22;23275;48.914;12.566;2023-04-24T05:42:17;11.00;99.90
37410;DHT22;23275;48.914;12.566;2023-04-24T05:44:43;11.00;99.90
37410;DHT22;23275;48.914;12.566;2023-04-24T05:47:09;11.00;99.90
37410;DHT22;23275;48.914;12.566;2023-04-24T05:49:34;11.10;99.90
37410;DHT22;23275;48.914;12.566;2023-04-24T05:52:00;11.10;99.90
37410;DHT22;23275;48.914;12.566;2023-04-24T05:54:25;11.10;99.90
37410;DHT22;23275;48.914;12.566;2023-04-24T05:56:51;11.20;99.90
37410;DHT22;23275;48.914;12.566;2023-04-24T05:59:16;11.20;99.90
37410;DHT22;23275;48.914;12.566;2023-04-24T06:01:42;11.30;99.90
37410;DHT22;23275;48.914;12.566;2023-04-24T06:04:07;11.40;99.90
37410;DHT22;23275;48.914;12.566;2023-04-24T06:06:34;11.50;99.90
37410;DHT22;23275;48.914;12.566;2023-04-24T06:09:00;11.60;99.90
37410;DHT22;23275;48.914;12.566;2023-04-24T06:11:25;11.60;99.90
37410;DHT22;23275;48.914;12.566;2023-04-24T06:13:51;11.70;99.90
37410;DHT22;23275;48.914;12.566;2023-04-24T06:16:17;11.90;99.90
37410;DHT22;23275;48.914;12.566;2023-04-24T06:18:42;12.00;99.90
37410;DHT22;23275;48.914;12.566;2023-04-24T06:21:08;12.00;99.90
37410;DHT22;23275;48.914;12.566;2023-04-24T06:23:33;12.10;99.90
37410;DHT22;23275;48.914;12.566;2023-04-24T06:25:59;12.10;99.90
37410;DHT22;23275;48.914;12.566;2023-04-24T06:28:25;12.10;99.90
37410;DHT22;23275;48.914;12.566;2023-04-24T06:30:51;12.10;99.90
37410;DHT22;23275;48.914;12.566;2023-04-24T06:33:16;12.10;99.90
37410;DHT22;23275;48.914;12.566;2023-04-24T06:35:43;12.10;99.90
37410;DHT22;23275;48.914;12.566;2023-04-24T06:38:08;12.10;99.90
37410;DHT22;23275;48.914;12.566;2023-04-24T06:40:34;12.10;99.90
37410;DHT22;23275;48.914;12.566;2023-04-24T06:42:59;12.20;99.90
37410;DHT22;23275;48.914;12.566;2023-04-24T06:45:28;12.20;99.90
37410;DHT22;23275;48.914;12.566;2023-04-24T06:47:54;12.20;99.90
37410;DHT22;23275;48.914;12.566;2023-04-24T06:50:19;12.10;99.90
37410;DHT22;23275;48.914;12.566;2023-04-24T06:52:45;12.10;99.90
37410;DHT22;23275;48.914;12.566;2023-04-24T06:55:11;12.10;99.90
37410;DHT22;23275;48.914;12.566;2023-04-24T06:57:36;12.10;99.90
37410;DHT22;23275;48.914;12.566;2023-04-24T07:00:03;12.10;99.90
37410;DHT22;23275;48.914;12.566;2023-04-24T07:02:30;12.20;99.90
37410;DHT22;23275;48.914;12.566;2023-04-24T07:04:56;12.20;99.90
37410;DHT22;23275;48.914;12.566;2023-04-24T07:07:22;12.20;99.90
37410;DHT22;23275;48.914;12.566;2023-04-24T07:09:49;12.20;99.90
37410;DHT22;23275;48.914;12.566;2023-04-24T07:12:16;12.20;99.90
37410;DHT22;23275;48.914;12.566;2023-04-24T07:14:42;12.20;99.90
37410;DHT22;23275;48.914;12.566;2023-04-24T07:17:08;12.20;99.90
37410;DHT22;23275;48.914;12.566;2023-04-24T07:19:33;12.30;99.90
37410;DHT22;23275;48.914;12.566;2023-04-24T07:22:00;12.30;99.90
37410;DHT22;23275;48.914;12.566;2023-04-24T07:24:26;12.30;99.90
37410;DHT22;23275;48.914;12.566;2023-04-24T07:26:53;12.40;99.90
37410;DHT22;23275;48.914;12.566;2023-04-24T07:29:19;12.50;99.90
37410;DHT22;23275;48.914;12.566;2023-04-24T07:31:45;12.50;99.90
37410;DHT22;23275;48.914;12.566;2023-04-24T07:34:10;12.50;99.90
37410;DHT22;23275;48.914;12.566;2023-04-24T07:36:36;12.60;99.90
37410;DHT22;23275;48.914;12.566;2023-04-24T07:39:04;12.80;99.90
37410;DHT22;23275;48.914;12.566;2023-04-24T07:41:29;12.80;99.90
37410;DHT22;23275;48.914;12.566;2023-04-24T07:43:55;12.80;99.90
37410;DHT22;23275;48.914;12.566;2023-04-24T07:46:21;12.80;99.90
37410;DHT22;23275;48.914;12.566;2023-04-24T07:48:47;12.70;99.90
37410;DHT22;23275;48.914;12.566;2023-04-24T07:51:14;12.80;99.90
37410;DHT22;23275;48.914;12.566;2023-04-24T07:53:40;12.90;99.90
37410;DHT22;23275;48.914;12.566;2023-04-24T07:56:06;13.00;99.90
37410;DHT22;23275;48.914;12.566;2023-04-24T07:58:31;13.00;99.90
37410;DHT22;23275;48.914;12.566;2023-04-24T08:00:57;13.00;99.90
37410;DHT22;23275;48.914;12.566;2023-04-24T08:03:23;13.10;99.90
37410;DHT22;23275;48.914;12.566;2023-04-24T08:05:49;13.10;99.90
37410;DHT22;23275;48.914;12.566;2023-04-24T08:08:16;13.30;99.90
37410;DHT22;23275;48.914;12.566;2023-04-24T08:10:42;13.40;99.90
37410;DHT22;23275;48.914;12.566;2023-04-24T08:13:07;13.50;99.90
37410;DHT22;23275;48.914;12.566;2023-04-24T08:15:33;13.60;99.90
37410;DHT22;23275;48.914;12.566;2023-04-24T08:17:58;13.70;99.90
37410;DHT22;23275;48.914;12.566;2023-04-24T08:20:24;13.60;99.90
37410;DHT22;23275;48.914;12.566;2023-04-24T08:22:50;13.50;99.90
37410;DHT22;23275;48.914;12.566;2023-04-24T08:25:15;13.40;99.90
37410;DHT22;23275;48.914;12.566;2023-04-24T08:27:41;13.40;99.90
37410;DHT22;23275;48.914;12.566;2023-04-24T08:30:07;13.20;99.90
37410;DHT22;23275;48.914;12.566;2023-04-24T08:32:32;13.20;99.90
37410;DHT22;23275;48.914;12.566;2023-04-24T08:34:59;13.00;99.90
37410;DHT22;23275;48.914;12.566;2023-04-24T08:37:26;13.00;99.90
37410;DHT22;23275;48.914;12.566;2023-04-24T08:39:52;13.00;99.90
37410;DHT22;23275;48.914;12.566;2023-04-24T08:42:19;13.00;99.90
37410;DHT22;23275;48.914;12.566;2023-04-24T08:44:45;13.00;99.90
37410;DHT22;23275;48.914;12.566;2023-04-24T08:47:11;13.00;99.90
37410;DHT22;23275;48.914;12.566;2023-04-24T08:49:38;13.00;99.90
37410;DHT22;23275;48.914;12.566;2023-04-24T08:52:05;13.00;99.90
37410;DHT22;23275;48.914;12.566;2023-04-24T08:54:31;13.10;99.90
37410;DHT22;23275;48.914;12.566;2023-04-24T08:57:00;13.20;99.90
37410;DHT22;23275;48.914;12.566;2023-04-24T08:59:32;13.30;99.90
37410;DHT22;23275;48.914;12.566;2023-04-24T09:01:58;13.50;99.90
37410;DHT22;23275;48.914;12.566;2023-04-24T09:04:25;13.90;99.90
37410;DHT22;23275;48.914;12.566;2023-04-24T09:06:56;14.60;99.90
37410;DHT22;23275;48.914;12.566;2023-04-24T09:09:24;15.10;99.90
37410;DHT22;23275;48.914;12.566;2023-04-24T09:11:50;15.50;99.90
37410;DHT22;23275;48.914;12.566;2023-04-24T09:14:17;15.70;99.90
37410;DHT22;23275;48.914;12.566;2023-04-24T09:16:43;16.10;99.90
37410;DHT22;23275;48.914;12.566;2023-04-24T09:19:09;16.40;99.90
37410;DHT22;23275;48.914;12.566;2023-04-24T09:21:35;16.50;99.90
37410;DHT22;23275;48.914;12.566;2023-04-24T09:24:07;16.60;99.90
37410;DHT22;23275;48.914;12.566;2023-04-24T09:26:35;16.30;99.90
37410;DHT22;23275;48.914;12.566;2023-04-24T09:29:01;15.50;99.90
37410;DHT22;23275;48.914;12.566;2023-04-24T09:31:28;14.50;99.90
37410;DHT22;23275;48.914;12.566;2023-04-24T09:36:32;13.00;99.90
37410;DHT22;23275;48.914;12.566;2023-04-24T09:39:02;12.70;99.90
37410;DHT22;23275;48.914;12.566;2023-04-24T09:41:28;12.50;99.90
37410;DHT22;23275;48.914;12.566;2023-04-24T09:43:57;12.40;99.90
37410;DHT22;23275;48.914;12.566;2023-04-24T09:46:30;12.40;99.90
37410;DHT22;23275;48.914;12.566;2023-04-24T09:49:08;12.50;99.90
37410;DHT22;23275;48.914;12.566;2023-04-24T09:51:35;12.50;99.90
37410;DHT22;23275;48.914;12.566;2023-04-24T09:54:05;12.40;99.90
37410;DHT22;23275;48.914;12.566;2023-04-24T09:56:42;12.60;99.90
37410;DHT22;23275;48.914;12.566;2023-04-24T09:59:09;14.20;99.90
37410;DHT22;23275;48.914;12.566;2023-04-24T10:01:34;15.70;99.90
37410;DHT22;23275;48.914;12.566;2023-04-24T10:04:00;16.30;99.90
37410;DHT22;23275;48.914;12.566;2023-04-24T10:06:35;17.20;99.90
37410;DHT22;23275;48.914;12.566;2023-04-24T10:09:02;19.60;99.90
37410;DHT22;23275;48.914;12.566;2023-04-24T10:11:29;20.10;99.90
37410;DHT22;23275;48.914;12.566;2023-04-24T10:13:55;21.10;99.90
37410;DHT22;23275;48.914;12.566;2023-04-24T10:16:23;23.30;99.90
37410;DHT22;23275;48.914;12.566;2023-04-24T10:18:49;26.20;99.90
37410;DHT22;23275;48.914;12.566;2023-04-24T10:21:16;28.80;94.10
37410;DHT22;23275;48.914;12.566;2023-04-24T10:23:42;30.90;84.40
37410;DHT22;23275;48.914;12.566;2023-04-24T10:26:13;32.40;73.50
37410;DHT22;23275;48.914;12.566;2023-04-24T10:28:45;31.70;67.40
37410;DHT22;23275;48.914;12.566;2023-04-24T10:31:12;30.90;65.70
37410;DHT22;23275;48.914;12.566;2023-04-24T10:33:40;30.40;64.30
37410;DHT22;23275;48.914;12.566;2023-04-24T10:36:08;29.20;67.00
37410;DHT22;23275;48.914;12.566;2023-04-24T10:38:35;27.30;67.70
37410;DHT22;23275;48.914;12.566;2023-04-24T10:41:09;25.50;70.40
37410;DHT22;23275;48.914;12.566;2023-04-24T10:43:35;23.80;72.50
37410;DHT22;23275;48.914;12.566;2023-04-24T10:46:02;23.20;74.40
37410;DHT22;23275;48.914;12.566;2023-04-24T10:48:29;23.10;76.60
37410;DHT22;23275;48.914;12.566;2023-04-24T10:50:54;22.50;77.90
37410;DHT22;23275;48.914;12.566;2023-04-24T10:53:22;21.80;82.20
37410;DHT22;23275;48.914;12.566;2023-04-24T10:56:07;21.40;82.50
37410;DHT22;23275;48.914;12.566;2023-04-24T10:58:41;21.70;83.70
37410;DHT22;23275;48.914;12.566;2023-04-24T11:03:59;21.30;83.60
37410;DHT22;23275;48.914;12.566;2023-04-24T11:09:10;20.60;88.30
37410;DHT22;23275;48.914;12.566;2023-04-24T11:11:38;21.00;89.00
37410;DHT22;23275;48.914;12.566;2023-04-24T11:14:10;21.50;88.70
37410;DHT22;23275;48.914;12.566;2023-04-24T11:21:48;20.30;87.80
37410;DHT22;23275;48.914;12.566;2023-04-24T11:35:15;18.60;89.50
37410;DHT22;23275;48.914;12.566;2023-04-24T11:37:53;18.30;90.20
37410;DHT22;23275;48.914;12.566;2023-04-24T11:40:20;18.30;91.00
37410;DHT22;23275;48.914;12.566;2023-04-24T11:42:47;18.50;90.40
37410;DHT22;23275;48.914;12.566;2023-04-24T11:45:23;18.90;91.80
37410;DHT22;23275;48.914;12.566;2023-04-24T11:47:50;19.30;91.10
37410;DHT22;23275;48.914;12.566;2023-04-24T11:50:17;19.30;88.30
37410;DHT22;23275;48.914;12.566;2023-04-24T11:52:45;19.30;88.90
37410;DHT22;23275;48.914;12.566;2023-04-24T11:57:43;19.30;85.40
37410;DHT22;23275;48.914;12.566;2023-04-24T12:00:15;19.40;88.10
37410;DHT22;23275;48.914;12.566;2023-04-24T12:02:41;19.40;89.00
37410;DHT22;23275;48.914;12.566;2023-04-24T12:05:07;19.30;88.50
37410;DHT22;23275;48.914;12.566;2023-04-24T12:07:41;18.60;87.30
37410;DHT22;23275;48.914;12.566;2023-04-24T12:10:08;17.50;90.00
37410;DHT22;23275;48.914;12.566;2023-04-24T12:12:34;16.80;92.00
37410;DHT22;23275;48.914;12.566;2023-04-24T12:15:01;15.70;96.50
37410;DHT22;23275;48.914;12.566;2023-04-24T12:17:30;14.70;99.90
37410;DHT22;23275;48.914;12.566;2023-04-24T12:20:03;14.00;99.90
37410;DHT22;23275;48.914;12.566;2023-04-24T12:25:11;13.40;99.90
37410;DHT22;23275;48.914;12.566;2023-04-24T12:27:37;13.30;99.90
37410;DHT22;23275;48.914;12.566;2023-04-24T12:30:11;13.30;99.90
37410;DHT22;23275;48.914;12.566;2023-04-24T12:32:44;13.20;99.90
37410;DHT22;23275;48.914;12.566;2023-04-24T12:35:13;13.30;99.90
37410;DHT22;23275;48.914;12.566;2023-04-24T12:37:41;13.60;99.90
37410;DHT22;23275;48.914;12.566;2023-04-24T12:40:10;14.00;99.90
37410;DHT22;23275;48.914;12.566;2023-04-24T12:42:41;14.30;99.90
37410;DHT22;23275;48.914;12.566;2023-04-24T12:45:07;14.60;99.90
37410;DHT22;23275;48.914;12.566;2023-04-24T12:47:34;14.70;99.90
37410;DHT22;23275;48.914;12.566;2023-04-24T12:50:01;15.00;99.90
37410;DHT22;23275;48.914;12.566;2023-04-24T12:52:28;15.20;99.90
37410;DHT22;23275;48.914;12.566;2023-04-24T12:54:56;15.70;99.90
37410;DHT22;23275;48.914;12.566;2023-04-24T12:57:23;16.10;99.90
37410;DHT22;23275;48.914;12.566;2023-04-24T12:59:49;16.50;99.90
37410;DHT22;23275;48.914;12.566;2023-04-24T13:02:15;16.90;99.90
37410;DHT22;23275;48.914;12.566;2023-04-24T13:04:45;17.00;99.90
37410;DHT22;23275;48.914;12.566;2023-04-24T13:07:12;17.10;99.90
37410;DHT22;23275;48.914;12.566;2023-04-24T13:09:38;16.90;99.90
37410;DHT22;23275;48.914;12.566;2023-04-24T13:12:03;16.80;99.90
37410;DHT22;23275;48.914;12.566;2023-04-24T13:14:31;16.40;99.90
37410;DHT22;23275;48.914;12.566;2023-04-24T13:16:56;16.30;99.90
37410;DHT22;23275;48.914;12.566;2023-04-24T13:19:24;16.40;99.90
37410;DHT22;23275;48.914;12.566;2023-04-24T13:21:51;16.20;99.90
37410;DHT22;23275;48.914;12.566;2023-04-24T13:24:17;16.10;99.90
37410;DHT22;23275;48.914;12.566;2023-04-24T13:26:43;15.80;99.90
37410;DHT22;23275;48.914;12.566;2023-04-24T13:29:08;15.60;99.90
37410;DHT22;23275;48.914;12.566;2023-04-24T13:31:34;15.40;99.90
37410;DHT22;23275;48.914;12.566;2023-04-24T13:34:02;15.10;99.90
37410;DHT22;23275;48.914;12.566;2023-04-24T13:36:28;15.00;99.90
37410;DHT22;23275;48.914;12.566;2023-04-24T13:38:53;14.80;99.90
37410;DHT22;23275;48.914;12.566;2023-04-24T13:41:19;14.70;99.90
37410;DHT22;23275;48.914;12.566;2023-04-24T13:43:45;14.50;99.90
37410;DHT22;23275;48.914;12.566;2023-04-24T13:46:10;14.40;99.90
37410;DHT22;23275;48.914;12.566;2023-04-24T13:48:36;14.30;99.90
37410;DHT22;23275;48.914;12.566;2023-04-24T13:51:01;14.30;99.90
37410;DHT22;23275;48.914;12.566;2023-04-24T13:53:27;14.30;99.90
37410;DHT22;23275;48.914;12.566;2023-04-24T13:55:53;14.30;99.90
37410;DHT22;23275;48.914;12.566;2023-04-24T13:58:18;14.20;99.90
37410;DHT22;23275;48.914;12.566;2023-04-24T14:00:44;14.10;99.90
37410;DHT22;23275;48.914;12.566;2023-04-24T14:03:10;13.90;99.90
37410;DHT22;23275;48.914;12.566;2023-04-24T14:05:36;14.00;99.90
37410;DHT22;23275;48.914;12.566;2023-04-24T14:08:01;14.20;99.90
37410;DHT22;23275;48.914;12.566;2023-04-24T14:10:27;14.40;99.90
37410;DHT22;23275;48.914;12.566;2023-04-24T14:12:53;14.70;99.90
37410;DHT22;23275;48.914;12.566;2023-04-24T14:15:19;14.90;99.90
37410;DHT22;23275;48.914;12.566;2023-04-24T14:17:45;15.10;99.90
37410;DHT22;23275;48.914;12.566;2023-04-24T14:20:11;15.00;99.90
37410;DHT22;23275;48.914;12.566;2023-04-24T14:22:37;15.10;99.90
37410;DHT22;23275;48.914;12.566;2023-04-24T14:25:03;15.30;99.90
37410;DHT22;23275;48.914;12.566;2023-04-24T14:27:29;15.10;99.90
37410;DHT22;23275;48.914;12.566;2023-04-24T14:29:55;15.00;99.90
37410;DHT22;23275;48.914;12.566;2023-04-24T14:32:21;14.80;99.90
37410;DHT22;23275;48.914;12.566;2023-04-24T14:34:46;14.70;99.90
37410;DHT22;23275;48.914;12.566;2023-04-24T14:37:12;14.50;99.90
37410;DHT22;23275;48.914;12.566;2023-04-24T14:39:37;14.40;99.90
37410;DHT22;23275;48.914;12.566;2023-04-24T14:42:03;14.30;99.90
37410;DHT22;23275;48.914;12.566;2023-04-24T14:44:28;14.10;99.90
37410;DHT22;23275;48.914;12.566;2023-04-24T14:46:54;14.10;99.90
37410;DHT22;23275;48.914;12.566;2023-04-24T14:49:20;14.10;99.90
37410;DHT22;23275;48.914;12.566;2023-04-24T14:51:46;14.10;99.90
37410;DHT22;23275;48.914;12.566;2023-04-24T14:54:11;14.10;99.90
37410;DHT22;23275;48.914;12.566;2023-04-24T14:56:37;14.10;99.90
37410;DHT22;23275;48.914;12.566;2023-04-24T14:59:07;14.20;99.90
37410;DHT22;23275;48.914;12.566;2023-04-24T15:01:33;14.20;99.90
37410;DHT22;23275;48.914;12.566;2023-04-24T15:03:59;14.40;99.90
37410;DHT22;23275;48.914;12.566;2023-04-24T15:06:25;14.40;99.90
37410;DHT22;23275;48.914;12.566;2023-04-24T15:08:50;14.40;99.90
37410;DHT22;23275;48.914;12.566;2023-04-24T15:11:16;14.20;99.90
37410;DHT22;23275;48.914;12.566;2023-04-24T15:13:42;14.10;99.90
37410;DHT22;23275;48.914;12.566;2023-04-24T15:16:08;14.10;99.90
37410;DHT22;23275;48.914;12.566;2023-04-24T15:18:34;14.10;99.90
37410;DHT22;23275;48.914;12.566;2023-04-24T15:21:00;14.00;99.90
37410;DHT22;23275;48.914;12.566;2023-04-24T15:23:25;13.90;99.90
37410;DHT22;23275;48.914;12.566;2023-04-24T15:25:51;13.80;99.90
37410;DHT22;23275;48.914;12.566;2023-04-24T15:28:16;13.80;99.90
37410;DHT22;23275;48.914;12.566;2023-04-24T15:30:43;13.80;99.90
37410;DHT22;23275;48.914;12.566;2023-04-24T15:33:08;13.80;99.90
37410;DHT22;23275;48.914;12.566;2023-04-24T15:35:34;13.90;99.90
37410;DHT22;23275;48.914;12.566;2023-04-24T15:38:00;13.90;99.90
37410;DHT22;23275;48.914;12.566;2023-04-24T15:40:26;13.90;99.90